Time;durP1;ratioP1;P1;durP2;ratioP2;P2;SDS_P1;SDS_P2;PMS_P1;PMS_P2;Temp;Humidity;BMP_temperature;BMP_pressure;BME280_temperature;BME280_humidity;BME280_pressure;Samples;Min_cycle;Max_cycle;Signal;HPM_P1;HPM_P2
2022/04/17 00:02:17;;;;;;;;;;;7.20;99.90;;;;;;5109982;27;19950;-74
2022/04/17 00:04:42;;;;;;;;;;;7.10;99.90;;;;;;5096769;28;20293;-74
2022/04/17 00:07:08;;;;;;;;;;;7.10;99.90;;;;;;5115616;28;20006;-75
2022/04/17 00:09:33;;;;;;;;;;;7.00;99.90;;;;;;5097081;28;19930;-75
2022/04/17 00:12:01;;;;;;;;;;;7.00;99.90;;;;;;5115235;28;19927;-75
2022/04/17 00:14:27;;;;;;;;;;;6.90;99.90;;;;;;5096805;28;19919;-75
2022/04/17 00:16:55;;;;;;;;;;;6.90;99.90;;;;;;5114932;28;20385;-75
2022/04/17 00:19:23;;;;;;;;;;;6.80;99.90;;;;;;5115178;28;19927;-75
2022/04/17 00:21:49;;;;;;;;;;;6.70;99.90;;;;;;5097650;28;20343;-75
2022/04/17 00:24:15;;;;;;;;;;;6.60;99.90;;;;;;5096014;28;20316;-75
2022/04/17 00:26:41;;;;;;;;;;;6.60;99.90;;;;;;5097555;28;19983;-75
2022/04/17 00:29:06;;;;;;;;;;;6.50;99.90;;;;;;5114841;28;19968;-75
2022/04/17 00:31:32;;;;;;;;;;;6.50;99.90;;;;;;5096574;28;19927;-75
2022/04/17 00:33:57;;;;;;;;;;;6.40;99.90;;;;;;5114541;28;19930;-74
2022/04/17 00:36:23;;;;;;;;;;;6.30;99.90;;;;;;5095194;28;20401;-75
2022/04/17 00:38:48;;;;;;;;;;;6.30;99.90;;;;;;5114692;28;20010;-74
2022/04/17 00:41:14;;;;;;;;;;;6.30;99.90;;;;;;5097135;28;20355;-74
2022/04/17 00:43:47;;;;;;;;;;;6.20;99.90;;;;;;5115294;28;20355;-75
2022/04/17 00:46:12;;;;;;;;;;;6.20;99.90;;;;;;5114411;28;19919;-75
2022/04/17 00:48:38;;;;;;;;;;;6.20;99.90;;;;;;5097218;28;20348;-75
2022/04/17 00:51:05;;;;;;;;;;;6.10;99.90;;;;;;5096661;28;20422;-75
2022/04/17 00:53:34;;;;;;;;;;;6.10;99.90;;;;;;5095932;28;19919;-75
2022/04/17 00:56:00;;;;;;;;;;;6.10;99.90;;;;;;5113120;28;19969;-74
2022/04/17 00:58:26;;;;;;;;;;;6.10;99.90;;;;;;5115099;28;19963;-75
2022/04/17 01:00:52;;;;;;;;;;;6.10;99.90;;;;;;5114284;28;20435;-75
2022/04/17 01:03:18;;;;;;;;;;;6.10;99.90;;;;;;5114305;28;19959;-75
2022/04/17 01:05:43;;;;;;;;;;;6.10;99.90;;;;;;5096714;28;20282;-75
2022/04/17 01:08:10;;;;;;;;;;;6.10;99.90;;;;;;5114099;28;20356;-75
2022/04/17 01:10:35;;;;;;;;;;;6.10;99.90;;;;;;5114901;28;19920;-75
2022/04/17 01:13:04;;;;;;;;;;;6.00;99.90;;;;;;5095045;28;19969;-75
2022/04/17 01:15:30;;;;;;;;;;;6.00;99.90;;;;;;5096303;28;19926;-75
2022/04/17 01:17:56;;;;;;;;;;;6.00;99.90;;;;;;5096561;28;19920;-75
2022/04/17 01:20:22;;;;;;;;;;;5.90;99.90;;;;;;5113692;28;20371;-75
2022/04/17 01:22:48;;;;;;;;;;;5.90;99.90;;;;;;5095017;28;19915;-75
2022/04/17 01:27:58;;;;;;;;;;;5.80;99.90;;;;;;5113368;28;20278;-75
2022/04/17 01:30:23;;;;;;;;;;;5.80;99.90;;;;;;5096341;28;19926;-75
2022/04/17 01:32:48;;;;;;;;;;;5.80;99.90;;;;;;5096049;28;19916;-75
2022/04/17 01:35:14;;;;;;;;;;;5.80;99.90;;;;;;5076320;28;19920;-75
2022/04/17 01:37:39;;;;;;;;;;;5.80;99.90;;;;;;5075657;28;19927;-75
2022/04/17 01:40:05;;;;;;;;;;;5.80;99.90;;;;;;5093226;28;20018;-75
2022/04/17 01:42:31;;;;;;;;;;;5.80;99.90;;;;;;5093102;28;19966;-75
2022/04/17 01:44:56;;;;;;;;;;;5.80;99.90;;;;;;5093674;28;20359;-75
2022/04/17 01:47:22;;;;;;;;;;;5.80;99.90;;;;;;5093485;28;19966;-75
2022/04/17 01:49:47;;;;;;;;;;;5.80;99.90;;;;;;5074692;28;19927;-75
2022/04/17 01:52:13;;;;;;;;;;;5.80;99.90;;;;;;5093375;28;19986;-75
2022/04/17 01:54:38;;;;;;;;;;;5.80;99.90;;;;;;5093711;28;19927;-75
2022/04/17 01:57:04;;;;;;;;;;;5.80;99.90;;;;;;5092761;28;19920;-75
2022/04/17 01:59:29;;;;;;;;;;;5.80;99.90;;;;;;5092913;28;20006;-75
2022/04/17 02:01:55;;;;;;;;;;;5.80;99.90;;;;;;5093176;28;20019;-75
2022/04/17 02:04:20;;;;;;;;;;;5.70;99.90;;;;;;5074253;28;19924;-75
2022/04/17 02:06:47;;;;;;;;;;;5.70;99.90;;;;;;5075466;28;20027;-75
2022/04/17 02:09:13;;;;;;;;;;;5.70;99.90;;;;;;5092379;28;20375;-74
2022/04/17 02:11:39;;;;;;;;;;;5.70;99.90;;;;;;5093198;28;20359;-75
2022/04/17 02:14:06;;;;;;;;;;;5.70;99.90;;;;;;5074599;28;19970;-74
2022/04/17 02:16:31;;;;;;;;;;;5.60;99.90;;;;;;5074354;28;19972;-74
2022/04/17 02:18:57;;;;;;;;;;;5.60;99.90;;;;;;5092815;28;19920;-75
2022/04/17 02:21:22;;;;;;;;;;;5.60;99.90;;;;;;5075404;28;20388;-75
2022/04/17 02:23:48;;;;;;;;;;;5.50;99.90;;;;;;5092483;28;20007;-75
2022/04/17 02:26:16;;;;;;;;;;;5.60;99.90;;;;;;5075020;28;19923;-75
2022/04/17 02:28:42;;;;;;;;;;;5.60;99.90;;;;;;5093243;28;19973;-75
2022/04/17 02:31:08;;;;;;;;;;;5.60;99.90;;;;;;5074305;28;19923;-75
2022/04/17 02:33:37;;;;;;;;;;;5.60;99.90;;;;;;5097171;28;19926;-75
2022/04/17 02:36:03;;;;;;;;;;;5.40;99.90;;;;;;5094710;28;19963;-75
2022/04/17 02:38:28;;;;;;;;;;;5.60;99.90;;;;;;5112496;28;19993;-75
2022/04/17 02:40:54;;;;;;;;;;;5.70;99.90;;;;;;5095311;28;20003;-75
2022/04/17 02:43:20;;;;;;;;;;;5.70;99.90;;;;;;5112836;28;19964;-75
2022/04/17 02:45:46;;;;;;;;;;;5.70;99.90;;;;;;5094411;28;19962;-75
2022/04/17 02:48:11;;;;;;;;;;;5.70;99.90;;;;;;5112524;28;20019;-75
2022/04/17 02:50:37;;;;;;;;;;;5.80;99.90;;;;;;5095006;28;19919;-75
2022/04/17 02:53:02;;;;;;;;;;;5.80;99.90;;;;;;5112112;28;19923;-75
2022/04/17 02:55:28;;;;;;;;;;;5.80;99.90;;;;;;5113109;28;19924;-74
2022/04/17 02:57:55;;;;;;;;;;;5.70;99.90;;;;;;5093310;28;19969;-75
2022/04/17 03:00:21;;;;;;;;;;;5.60;99.90;;;;;;5094215;28;19958;-75
2022/04/17 03:05:37;;;;;;;;;;;5.50;99.90;;;;;;5112772;28;20022;-75
2022/04/17 03:08:04;;;;;;;;;;;5.50;99.90;;;;;;5085717;28;20006;-75
2022/04/17 03:10:29;;;;;;;;;;;5.50;99.90;;;;;;5071122;28;19927;-75
2022/04/17 03:12:55;;;;;;;;;;;5.50;99.90;;;;;;5070527;28;19921;-75
2022/04/17 03:15:20;;;;;;;;;;;5.50;99.90;;;;;;5072364;28;20021;-75
2022/04/17 03:17:46;;;;;;;;;;;5.50;99.90;;;;;;5072456;28;19926;-75
2022/04/17 03:20:11;;;;;;;;;;;5.50;99.90;;;;;;5070172;28;19928;-75
2022/04/17 03:22:43;;;;;;;;;;;5.50;99.90;;;;;;5071078;28;19924;-75
2022/04/17 03:25:09;;;;;;;;;;;5.50;99.90;;;;;;5070748;28;19963;-75
2022/04/17 03:27:35;;;;;;;;;;;5.40;99.90;;;;;;5071931;28;19920;-75
2022/04/17 03:30:00;;;;;;;;;;;5.40;99.90;;;;;;5072209;28;19930;-75
2022/04/17 03:32:29;;;;;;;;;;;5.30;99.90;;;;;;5054087;28;19924;-75
2022/04/17 03:34:54;;;;;;;;;;;6.50;99.90;;;;;;5053550;28;20391;-75
2022/04/17 03:37:22;;;;;;;;;;;5.20;99.90;;;;;;5072184;28;19987;-75
2022/04/17 03:39:48;;;;;;;;;;;5.20;99.90;;;;;;5071860;28;19927;-75
2022/04/17 03:42:15;;;;;;;;;;;5.20;99.90;;;;;;5090236;28;19999;-75
2022/04/17 03:44:41;;;;;;;;;;;5.10;99.90;;;;;;5073962;28;19968;-74
2022/04/17 03:47:06;;;;;;;;;;;5.10;99.90;;;;;;5073850;28;20724;-75
2022/04/17 03:49:32;;;;;;;;;;;5.10;99.90;;;;;;5094461;28;19965;-75
2022/04/17 03:51:57;;;;;;;;;;;5.00;99.90;;;;;;5077336;28;20368;-75
2022/04/17 03:54:23;;;;;;;;;;;5.00;99.90;;;;;;5095585;28;19919;-75
2022/04/17 03:56:49;;;;;;;;;;;5.00;99.90;;;;;;5095203;28;19924;-75
2022/04/17 03:59:14;;;;;;;;;;;5.00;99.90;;;;;;5077171;28;20349;-74
2022/04/17 04:01:42;;;;;;;;;;;5.00;99.90;;;;;;5095367;28;19997;-74
2022/04/17 04:04:08;;;;;;;;;;;5.00;99.90;;;;;;5076671;28;19974;-74
2022/04/17 04:06:33;;;;;;;;;;;5.00;99.90;;;;;;5077450;28;19920;-74
2022/04/17 04:08:59;;;;;;;;;;;4.90;99.90;;;;;;5076473;28;19923;-74
2022/04/17 04:11:24;;;;;;;;;;;4.90;99.90;;;;;;5077337;28;19916;-74
2022/04/17 04:13:50;;;;;;;;;;;4.90;99.90;;;;;;5080572;28;19924;-74
2022/04/17 04:16:15;;;;;;;;;;;4.90;99.90;;;;;;5094296;28;20718;-73
2022/04/17 04:18:41;;;;;;;;;;;4.80;99.90;;;;;;5077071;28;19920;-74
2022/04/17 04:21:09;;;;;;;;;;;4.80;99.90;;;;;;5095209;28;19998;-74
2022/04/17 04:23:35;;;;;;;;;;;4.80;99.90;;;;;;5094795;28;20010;-74
2022/04/17 04:26:01;;;;;;;;;;;4.80;99.90;;;;;;5077084;28;19963;-74
2022/04/17 04:28:33;;;;;;;;;;;4.90;99.90;;;;;;5076925;28;19982;-74
2022/04/17 04:30:59;;;;;;;;;;;4.80;99.90;;;;;;5076363;28;19943;-75
2022/04/17 04:33:24;;;;;;;;;;;5.30;99.90;;;;;;5076501;28;19924;-75
2022/04/17 04:35:50;;;;;;;;;;;4.80;99.90;;;;;;5076794;28;19920;-74
2022/04/17 04:38:15;;;;;;;;;;;4.80;99.90;;;;;;5093798;28;19920;-74
2022/04/17 04:40:41;;;;;;;;;;;4.90;99.90;;;;;;5094892;28;20015;-74
2022/04/17 04:43:06;;;;;;;;;;;4.90;99.90;;;;;;5076183;28;19951;-74
2022/04/17 04:49:29;;;;;;;;;;;4.90;99.90;;;;;;5094246;28;19959;-74
2022/04/17 04:51:01;;;;;;;;;;;4.90;99.90;;;;;;5075802;28;19931;-75
2022/04/17 04:53:27;;;;;;;;;;;4.90;99.90;;;;;;5076230;28;19916;-75
2022/04/17 04:55:54;;;;;;;;;;;4.90;99.90;;;;;;5095149;28;20370;-76
2022/04/17 04:58:20;;;;;;;;;;;4.90;99.90;;;;;;5093648;28;19960;-74
2022/04/17 05:00:46;;;;;;;;;;;4.90;99.90;;;;;;5075138;28;19951;-75
2022/04/17 05:03:11;;;;;;;;;;;5.00;99.90;;;;;;5093965;28;19927;-75
2022/04/17 05:05:37;;;;;;;;;;;5.00;99.90;;;;;;5076021;28;20368;-74
2022/04/17 05:08:02;;;;;;;;;;;5.00;99.90;;;;;;5075716;28;19920;-74
2022/04/17 05:10:28;;;;;;;;;;;5.00;99.90;;;;;;5076004;28;20294;-75
2022/04/17 05:12:53;;;;;;;;;;;5.00;99.90;;;;;;5075552;28;19920;-74
2022/04/17 05:15:21;;;;;;;;;;;5.10;99.90;;;;;;5076100;28;19919;-74
2022/04/17 05:17:46;;;;;;;;;;;5.10;99.90;;;;;;5094271;28;20023;-74
2022/04/17 05:20:15;;;;;;;;;;;5.20;99.90;;;;;;5093287;28;20010;-74
2022/04/17 05:22:40;;;;;;;;;;;5.20;99.90;;;;;;5091858;28;19947;-74
2022/04/17 05:25:06;;;;;;;;;;;5.30;99.90;;;;;;5091711;28;20363;-74
2022/04/17 05:27:32;;;;;;;;;;;5.30;99.90;;;;;;5073088;28;19970;-74
2022/04/17 05:29:57;;;;;;;;;;;5.30;99.90;;;;;;5091652;28;19920;-74
2022/04/17 05:32:23;;;;;;;;;;;5.40;99.90;;;;;;5091775;28;19920;-74
2022/04/17 05:34:49;;;;;;;;;;;5.40;99.90;;;;;;5087479;28;19920;-74
2022/04/17 05:37:15;;;;;;;;;;;5.40;99.90;;;;;;5110967;28;19926;-74
2022/04/17 05:39:41;;;;;;;;;;;5.50;99.90;;;;;;5095111;28;20054;-75
2022/04/17 05:42:06;;;;;;;;;;;5.50;99.90;;;;;;5112240;28;20040;-74
2022/04/17 05:44:32;;;;;;;;;;;5.60;99.90;;;;;;5094590;28;20342;-74
2022/04/17 05:46:59;;;;;;;;;;;5.60;99.90;;;;;;5094907;28;19965;-74
2022/04/17 05:49:24;;;;;;;;;;;5.60;99.90;;;;;;5094686;28;19958;-74
2022/04/17 05:51:50;;;;;;;;;;;5.70;99.90;;;;;;5113820;28;19973;-74
2022/04/17 05:54:16;;;;;;;;;;;5.80;99.90;;;;;;5094299;28;19927;-74
2022/04/17 05:56:41;;;;;;;;;;;5.80;99.90;;;;;;5095671;28;19923;-74
2022/04/17 05:59:07;;;;;;;;;;;5.90;99.90;;;;;;5113027;28;19923;-73
2022/04/17 06:01:32;;;;;;;;;;;6.00;99.90;;;;;;5113228;28;19919;-75
2022/04/17 06:04:01;;;;;;;;;;;6.00;99.90;;;;;;5094984;28;19920;-74
2022/04/17 06:06:27;;;;;;;;;;;6.00;99.90;;;;;;5113559;28;19926;-74
2022/04/17 06:08:52;;;;;;;;;;;6.10;99.90;;;;;;5113054;28;20295;-74
2022/04/17 06:11:17;;;;;;;;;;;6.20;99.90;;;;;;5095209;28;20274;-73
2022/04/17 06:13:43;;;;;;;;;;;6.20;99.90;;;;;;5113032;28;19927;-74
2022/04/17 06:16:08;;;;;;;;;;;6.30;99.90;;;;;;5111646;28;20342;-75
2022/04/17 06:18:34;;;;;;;;;;;6.30;99.90;;;;;;5094788;28;19926;-83
2022/04/17 06:21:02;;;;;;;;;;;6.40;99.90;;;;;;5113343;28;20355;-74
2022/04/17 06:23:28;;;;;;;;;;;6.50;99.90;;;;;;5094848;28;20358;-73
2022/04/17 06:25:54;;;;;;;;;;;6.50;99.90;;;;;;5095317;28;20014;-75
2022/04/17 06:28:19;;;;;;;;;;;6.60;99.90;;;;;;5095312;28;19919;-77
2022/04/17 06:30:45;;;;;;;;;;;7.60;99.90;;;;;;5112412;28;19920;-76
2022/04/17 06:33:11;;;;;;;;;;;6.80;99.90;;;;;;5110603;28;20010;-75
2022/04/17 06:35:36;;;;;;;;;;;6.90;99.90;;;;;;5091271;28;20279;-75
2022/04/17 06:38:02;;;;;;;;;;;7.00;99.90;;;;;;5091605;28;20085;-75
2022/04/17 06:40:29;;;;;;;;;;;7.10;99.90;;;;;;5093267;28;19919;-75
2022/04/17 06:42:56;;;;;;;;;;;7.20;99.90;;;;;;5092534;28;19920;-76
2022/04/17 06:45:22;;;;;;;;;;;7.20;99.90;;;;;;5092278;28;19927;-76
2022/04/17 06:47:48;;;;;;;;;;;7.30;99.90;;;;;;5093326;28;19950;-76
2022/04/17 06:50:14;;;;;;;;;;;7.40;99.90;;;;;;5073709;28;19927;-76
2022/04/17 06:52:40;;;;;;;;;;;7.50;99.90;;;;;;5090329;28;19927;-77
2022/04/17 06:55:06;;;;;;;;;;;7.60;99.90;;;;;;5091324;28;19924;-77
2022/04/17 06:57:33;;;;;;;;;;;7.70;99.90;;;;;;5091412;28;20326;-77
2022/04/17 07:00:03;;;;;;;;;;;7.70;99.90;;;;;;5073807;28;20374;-76
2022/04/17 07:02:28;;;;;;;;;;;7.80;99.90;;;;;;5092277;28;19920;-77
2022/04/17 07:04:54;;;;;;;;;;;7.90;99.90;;;;;;5074025;28;20283;-76
2022/04/17 07:07:21;;;;;;;;;;;7.90;99.90;;;;;;5073800;28;19920;-77
2022/04/17 07:09:46;;;;;;;;;;;8.00;99.90;;;;;;5074593;28;20389;-80
2022/04/17 07:12:12;;;;;;;;;;;8.10;99.90;;;;;;5090519;28;19920;-78
2022/04/17 07:14:37;;;;;;;;;;;8.20;99.90;;;;;;5070893;28;19960;-80
2022/04/17 07:17:03;;;;;;;;;;;8.50;99.90;;;;;;5054026;28;19920;-79
2022/04/17 07:19:29;;;;;;;;;;;9.40;99.90;;;;;;5070461;28;19926;-78
2022/04/17 07:21:54;;;;;;;;;;;10.60;99.90;;;;;;5073611;28;19973;-78
2022/04/17 07:24:21;;;;;;;;;;;11.80;99.30;;;;;;5094965;28;20282;-79
2022/04/17 07:26:53;;;;;;;;;;;12.70;98.00;;;;;;5095719;28;19920;-81
2022/04/17 07:29:22;;;;;;;;;;;13.40;95.50;;;;;;5078364;28;20011;-79
2022/04/17 07:31:51;;;;;;;;;;;14.00;94.70;;;;;;5096325;28;19916;-79
2022/04/17 07:34:17;;;;;;;;;;;14.60;92.60;;;;;;5083782;28;20105;-77
2022/04/17 07:36:42;;;;;;;;;;;15.20;92.00;;;;;;5095665;28;20018;-75
2022/04/17 07:39:08;;;;;;;;;;;15.60;90.60;;;;;;5089235;28;20019;-77
2022/04/17 07:41:33;;;;;;;;;;;15.80;87.40;;;;;;5086266;28;19924;-76
2022/04/17 07:43:59;;;;;;;;;;;16.00;85.20;;;;;;5090148;28;20328;-75
2022/04/17 07:46:25;;;;;;;;;;;16.40;89.00;;;;;;5091880;28;19934;-75
2022/04/17 07:48:51;;;;;;;;;;;16.90;81.80;;;;;;5094096;28;20008;-78
2022/04/17 07:51:16;;;;;;;;;;;17.20;78.50;;;;;;5094823;28;19924;-73
2022/04/17 07:53:42;;;;;;;;;;;17.50;74.50;;;;;;5095652;28;19975;-73
2022/04/17 07:56:08;;;;;;;;;;;17.70;71.90;;;;;;5094501;28;19916;-75
2022/04/17 07:58:37;;;;;;;;;;;17.50;71.50;;;;;;5095440;28;19924;-77
2022/04/17 08:01:11;;;;;;;;;;;17.70;72.70;;;;;;5092863;28;20002;-74
2022/04/17 08:06:06;;;;;;;;;;;17.70;69.30;;;;;;5094193;28;19981;-73
2022/04/17 08:08:32;;;;;;;;;;;17.90;69.40;;;;;;5094625;28;19924;-72
2022/04/17 08:10:57;;;;;;;;;;;18.00;68.80;;;;;;5094891;28;19943;-77
2022/04/17 08:13:23;;;;;;;;;;;18.30;67.30;;;;;;5094700;28;20343;-71
2022/04/17 08:15:50;;;;;;;;;;;18.50;67.20;;;;;;5093255;28;20252;-75
2022/04/17 08:18:15;;;;;;;;;;;18.50;66.10;;;;;;5093786;28;20303;-74
2022/04/17 08:20:41;;;;;;;;;;;18.40;65.20;;;;;;5093887;28;19923;-71
2022/04/17 08:23:07;;;;;;;;;;;18.60;65.40;;;;;;5089011;28;19924;-73
2022/04/17 08:25:33;;;;;;;;;;;18.40;64.70;;;;;;5093646;28;20500;-73
2022/04/17 08:27:58;;;;;;;;;;;18.50;64.10;;;;;;5094187;28;19920;-73
2022/04/17 08:30:25;;;;;;;;;;;18.70;65.10;;;;;;5094090;28;20018;-73
2022/04/17 08:32:50;;;;;;;;;;;18.90;64.30;;;;;;5094889;28;20374;-77
2022/04/17 08:35:16;;;;;;;;;;;19.30;60.90;;;;;;5096335;28;19930;-75
2022/04/17 08:37:43;;;;;;;;;;;19.30;63.30;;;;;;5095970;28;19920;-72
2022/04/17 08:40:09;;;;;;;;;;;19.80;60.40;;;;;;5091063;28;20394;-73
2022/04/17 08:42:36;;;;;;;;;;;19.40;59.80;;;;;;5079863;28;19923;-73
2022/04/17 08:45:01;;;;;;;;;;;19.40;60.20;;;;;;5110302;28;19931;-74
2022/04/17 08:47:27;;;;;;;;;;;19.40;59.30;;;;;;5123894;27;19946;-73
2022/04/17 08:49:53;;;;;;;;;;;19.40;59.00;;;;;;5124342;27;19930;-72
2022/04/17 08:52:19;;;;;;;;;;;19.40;59.60;;;;;;5087842;28;19976;-73
2022/04/17 08:54:46;;;;;;;;;;;19.60;60.20;;;;;;5105808;27;19927;-70
2022/04/17 08:57:11;;;;;;;;;;;19.80;57.60;;;;;;5120798;27;20027;-70
2022/04/17 08:59:37;;;;;;;;;;;20.10;57.50;;;;;;5104821;27;20029;-70
2022/04/17 09:02:12;;;;;;;;;;;20.10;58.10;;;;;;5110975;27;19927;-72
2022/04/17 09:04:44;;;;;;;;;;;20.20;55.80;;;;;;5111672;27;19934;-73
2022/04/17 09:07:10;;;;;;;;;;;20.30;57.20;;;;;;5097750;28;19923;-73
2022/04/17 09:09:39;;;;;;;;;;;20.30;55.70;;;;;;5097658;27;19924;-73
2022/04/17 09:12:05;;;;;;;;;;;21.00;56.20;;;;;;5107284;27;19930;-73
2022/04/17 09:14:30;;;;;;;;;;;20.50;55.60;;;;;;5105201;27;19923;-73
2022/04/17 09:16:56;;;;;;;;;;;20.60;54.90;;;;;;5096305;27;20014;-73
2022/04/17 09:19:24;;;;;;;;;;;20.40;53.70;;;;;;5114424;27;19963;-75
2022/04/17 09:21:56;;;;;;;;;;;20.70;56.00;;;;;;5104389;27;20010;-75
2022/04/17 09:24:24;;;;;;;;;;;20.70;56.50;;;;;;5099338;27;20032;-77
2022/04/17 09:26:51;;;;;;;;;;;20.70;56.10;;;;;;5119046;27;19923;-77
2022/04/17 09:29:19;;;;;;;;;;;20.80;56.80;;;;;;5116287;27;20785;-77
2022/04/17 09:31:45;;;;;;;;;;;21.00;54.30;;;;;;5110988;27;20048;-76
2022/04/17 09:34:10;;;;;;;;;;;21.30;55.10;;;;;;5075442;28;19931;-76
2022/04/17 09:36:37;;;;;;;;;;;21.40;54.50;;;;;;5106727;28;19924;-76
2022/04/17 09:39:15;;;;;;;;;;;21.40;54.70;;;;;;5094611;28;19980;-75
2022/04/17 09:41:53;;;;;;;;;;;21.50;55.00;;;;;;5097098;28;19935;-76
2022/04/17 09:44:35;;;;;;;;;;;21.60;54.30;;;;;;5069632;28;19920;-77
2022/04/17 09:47:01;;;;;;;;;;;21.80;53.00;;;;;;5096857;28;19928;-77
2022/04/17 09:49:27;;;;;;;;;;;21.90;53.30;;;;;;5090259;28;20002;-77
2022/04/17 09:52:08;;;;;;;;;;;22.10;52.20;;;;;;5071581;28;19942;-77
2022/04/17 09:54:33;;;;;;;;;;;22.10;52.70;;;;;;5089831;28;19969;-77
2022/04/17 09:56:59;;;;;;;;;;;22.20;48.40;;;;;;5074151;28;19920;-78
2022/04/17 09:59:27;;;;;;;;;;;22.50;48.60;;;;;;5102076;28;19919;-76
2022/04/17 10:01:57;;;;;;;;;;;22.20;50.30;;;;;;5098742;28;20019;-76
2022/04/17 10:04:24;;;;;;;;;;;22.40;51.30;;;;;;5088999;28;19965;-74
2022/04/17 10:06:50;;;;;;;;;;;22.30;49.90;;;;;;5091219;28;19955;-76
2022/04/17 10:09:16;;;;;;;;;;;22.30;49.40;;;;;;5090500;28;20456;-73
2022/04/17 10:11:42;;;;;;;;;;;22.20;50.30;;;;;;5092480;28;20263;-76
2022/04/17 10:14:07;;;;;;;;;;;22.50;50.50;;;;;;5074418;28;20304;-76
2022/04/17 10:16:33;;;;;;;;;;;22.80;49.50;;;;;;5092342;28;19926;-77
2022/04/17 10:19:00;;;;;;;;;;;22.80;50.70;;;;;;5090343;28;19920;-75
2022/04/17 10:21:28;;;;;;;;;;;22.60;51.30;;;;;;5090785;28;19920;-77
2022/04/17 10:23:56;;;;;;;;;;;22.80;50.00;;;;;;5090821;28;19927;-79
2022/04/17 10:26:23;;;;;;;;;;;22.90;48.50;;;;;;5092165;28;20026;-76
2022/04/17 10:28:50;;;;;;;;;;;22.70;48.70;;;;;;5089112;28;19927;-73
2022/04/17 10:31:20;;;;;;;;;;;22.80;49.80;;;;;;5084289;28;19950;-75
2022/04/17 10:34:07;;;;;;;;;;;22.80;48.30;;;;;;5084738;28;19924;-73
2022/04/17 10:36:33;;;;;;;;;;;22.60;47.40;;;;;;5088080;28;20016;-74
2022/04/17 10:39:11;;;;;;;;;;;22.50;46.90;;;;;;5069837;28;19977;-73
2022/04/17 10:41:37;;;;;;;;;;;22.20;48.20;;;;;;5069925;28;20393;-83
2022/04/17 10:44:03;;;;;;;;;;;22.40;48.10;;;;;;5087905;28;20309;-84
2022/04/17 10:46:29;;;;;;;;;;;22.90;46.10;;;;;;5089102;28;19924;-81
2022/04/17 10:48:55;;;;;;;;;;;22.70;48.00;;;;;;5087707;28;19938;-74
2022/04/17 10:51:30;;;;;;;;;;;22.60;47.00;;;;;;5084431;28;20008;-74
2022/04/17 10:54:05;;;;;;;;;;;22.90;43.70;;;;;;5089391;28;19985;-71
2022/04/17 10:56:35;;;;;;;;;;;22.70;46.40;;;;;;5086569;28;19919;-76
2022/04/17 10:59:03;;;;;;;;;;;22.50;47.70;;;;;;5064912;28;19935;-74
2022/04/17 11:01:41;;;;;;;;;;;22.60;47.50;;;;;;5071220;28;19928;-73
2022/04/17 11:04:15;;;;;;;;;;;22.40;45.10;;;;;;5086891;28;20217;-75
2022/04/17 11:06:42;;;;;;;;;;;21.80;43.90;;;;;;5054549;28;20458;-72
2022/04/17 11:09:15;;;;;;;;;;;21.80;46.40;;;;;;5077166;28;19920;-73
2022/04/17 11:11:43;;;;;;;;;;;21.90;47.00;;;;;;5072171;28;19924;-71
2022/04/17 11:14:11;;;;;;;;;;;21.90;47.20;;;;;;5087041;28;19935;-75
2022/04/17 11:16:56;;;;;;;;;;;21.70;48.80;;;;;;5074162;28;19926;-74
2022/04/17 11:19:22;;;;;;;;;;;21.70;49.30;;;;;;5091908;28;19939;-74
2022/04/17 11:21:52;;;;;;;;;;;21.80;48.10;;;;;;5074384;28;19997;-76
2022/04/17 11:24:19;;;;;;;;;;;22.10;49.50;;;;;;5091477;28;19931;-87
2022/04/17 11:26:52;;;;;;;;;;;22.00;45.40;;;;;;5073272;28;19940;-78
2022/04/17 11:29:37;;;;;;;;;;;22.00;46.60;;;;;;5073869;28;19920;-74
2022/04/17 11:32:23;;;;;;;;;;;21.70;44.20;;;;;;5076073;28;20724;-82
2022/04/17 11:34:55;;;;;;;;;;;21.80;45.10;;;;;;5074630;28;19935;-82
2022/04/17 11:37:30;;;;;;;;;;;21.50;46.40;;;;;;5077855;28;20004;-76
2022/04/17 11:40:00;;;;;;;;;;;21.70;46.80;;;;;;5095462;28;19955;-76
2022/04/17 11:42:27;;;;;;;;;;;21.70;45.40;;;;;;5095923;28;19965;-81
2022/04/17 11:44:54;;;;;;;;;;;22.10;44.70;;;;;;5074001;28;19927;-85
2022/04/17 11:47:20;;;;;;;;;;;22.00;44.30;;;;;;5056959;28;19970;-75
2022/04/17 11:49:48;;;;;;;;;;;21.70;43.90;;;;;;5077238;28;20008;-71
2022/04/17 11:52:19;;;;;;;;;;;21.40;45.60;;;;;;5075794;28;19971;-73
2022/04/17 11:54:45;;;;;;;;;;;21.40;46.20;;;;;;5071073;28;19927;-77
2022/04/17 11:57:11;;;;;;;;;;;21.80;45.80;;;;;;5091828;28;20256;-70
2022/04/17 11:59:43;;;;;;;;;;;21.70;45.10;;;;;;5078740;28;19927;-77
2022/04/17 12:02:09;;;;;;;;;;;21.80;45.50;;;;;;5089490;28;19920;-75
2022/04/17 12:04:36;;;;;;;;;;;21.90;45.20;;;;;;5094509;28;19998;-78
2022/04/17 12:07:02;;;;;;;;;;;21.90;45.40;;;;;;5094401;28;19924;-74
2022/04/17 12:09:27;;;;;;;;;;;21.90;47.90;;;;;;5094861;28;19928;-78
2022/04/17 12:11:53;;;;;;;;;;;21.90;45.10;;;;;;5095599;28;20351;-78
2022/04/17 12:14:28;;;;;;;;;;;21.90;44.90;;;;;;5076389;28;19971;-79
2022/04/17 12:16:54;;;;;;;;;;;21.90;45.60;;;;;;5077129;28;19920;-77
2022/04/17 12:19:19;;;;;;;;;;;21.60;45.60;;;;;;5076159;28;19920;-76
2022/04/17 12:21:45;;;;;;;;;;;21.70;46.40;;;;;;5076356;28;20391;-77
2022/04/17 12:24:11;;;;;;;;;;;21.90;45.80;;;;;;5094778;28;19946;-81
2022/04/17 12:26:37;;;;;;;;;;;22.00;46.60;;;;;;5094916;28;20363;-75
2022/04/17 12:29:07;;;;;;;;;;;22.00;46.90;;;;;;5094102;28;20426;-77
2022/04/17 12:31:36;;;;;;;;;;;22.10;45.50;;;;;;5094930;28;20363;-75
2022/04/17 12:34:05;;;;;;;;;;;21.80;47.90;;;;;;5094572;28;19924;-77
2022/04/17 12:36:31;;;;;;;;;;;21.80;46.40;;;;;;5075929;28;20002;-75
2022/04/17 12:38:56;;;;;;;;;;;21.90;44.10;;;;;;5076539;28;20011;-78
2022/04/17 12:41:25;;;;;;;;;;;21.50;45.40;;;;;;5094697;28;19920;-75
2022/04/17 12:43:51;;;;;;;;;;;21.70;45.20;;;;;;5075672;28;19923;-74
2022/04/17 12:46:25;;;;;;;;;;;21.40;45.40;;;;;;5076722;28;19931;-87
2022/04/17 12:49:04;;;;;;;;;;;21.00;45.90;;;;;;5094622;28;19920;-75
2022/04/17 12:51:29;;;;;;;;;;;20.90;45.90;;;;;;5092743;28;19920;-73
2022/04/17 12:53:55;;;;;;;;;;;21.10;45.30;;;;;;5074862;28;19973;-73
2022/04/17 12:56:24;;;;;;;;;;;20.60;45.50;;;;;;5085876;28;19949;-73
2022/04/17 12:58:51;;;;;;;;;;;20.40;45.90;;;;;;5098343;28;19935;-78
2022/04/17 13:01:21;;;;;;;;;;;19.90;46.70;;;;;;5085694;28;19924;-71
2022/04/17 13:03:46;;;;;;;;;;;19.70;47.80;;;;;;5104555;28;20010;-74
2022/04/17 13:06:17;;;;;;;;;;;19.80;48.10;;;;;;5101908;28;20007;-77
2022/04/17 13:08:43;;;;;;;;;;;19.90;49.20;;;;;;5106262;28;19920;-81
2022/04/17 13:11:20;;;;;;;;;;;19.50;46.70;;;;;;5076074;28;20286;-75
2022/04/17 13:13:50;;;;;;;;;;;19.50;49.00;;;;;;5084590;28;19920;-74
2022/04/17 13:16:18;;;;;;;;;;;19.50;47.30;;;;;;5092912;28;19980;-77
2022/04/17 13:18:44;;;;;;;;;;;19.40;48.60;;;;;;5076906;28;19927;-74
2022/04/17 13:21:09;;;;;;;;;;;19.40;46.60;;;;;;5093956;28;19920;-77
2022/04/17 13:23:35;;;;;;;;;;;19.40;48.30;;;;;;5088483;28;20367;-78
2022/04/17 13:26:00;;;;;;;;;;;19.50;48.90;;;;;;5070404;28;19920;-75
2022/04/17 13:28:26;;;;;;;;;;;19.70;47.00;;;;;;5094400;28;19924;-80
2022/04/17 13:30:53;;;;;;;;;;;19.70;47.00;;;;;;5076255;28;19994;-75
2022/04/17 13:33:18;;;;;;;;;;;19.50;47.90;;;;;;5072381;28;19927;-74
2022/04/17 13:35:45;;;;;;;;;;;19.60;47.20;;;;;;5079880;28;19920;-74
2022/04/17 13:38:13;;;;;;;;;;;19.50;48.90;;;;;;5055225;28;19928;-73
2022/04/17 13:40:39;;;;;;;;;;;19.50;49.40;;;;;;5070738;28;19928;-72
2022/04/17 13:43:05;;;;;;;;;;;19.40;49.50;;;;;;5074143;28;19995;-72
2022/04/17 13:45:30;;;;;;;;;;;19.60;46.90;;;;;;5092804;28;20377;-79
2022/04/17 13:47:56;;;;;;;;;;;19.60;48.80;;;;;;5089590;28;19927;-73
2022/04/17 13:50:21;;;;;;;;;;;19.50;48.00;;;;;;5074801;28;19926;-81
2022/04/17 13:52:47;;;;;;;;;;;19.40;49.50;;;;;;5075015;28;20213;-75
2022/04/17 13:55:15;;;;;;;;;;;19.50;50.40;;;;;;5075565;28;19920;-84
2022/04/17 13:57:40;;;;;;;;;;;19.60;49.50;;;;;;5090705;28;19920;-77
2022/04/17 14:00:06;;;;;;;;;;;19.60;48.40;;;;;;5076831;28;19945;-75
2022/04/17 14:02:32;;;;;;;;;;;19.60;49.10;;;;;;5072388;28;20251;-72
2022/04/17 14:04:57;;;;;;;;;;;19.50;48.10;;;;;;5075022;28;20367;-73
2022/04/17 14:07:23;;;;;;;;;;;19.60;48.80;;;;;;5094319;28;19953;-75
2022/04/17 14:09:49;;;;;;;;;;;19.70;47.80;;;;;;5094204;28;19920;-80
2022/04/17 14:12:17;;;;;;;;;;;19.70;49.20;;;;;;5078497;28;19959;-86
2022/04/17 14:14:43;;;;;;;;;;;19.70;46.70;;;;;;5073691;28;20023;-85
2022/04/17 14:17:09;;;;;;;;;;;19.50;48.80;;;;;;5094495;28;19928;-79
2022/04/17 14:19:35;;;;;;;;;;;19.50;50.00;;;;;;5094197;28;19974;-79
2022/04/17 14:22:00;;;;;;;;;;;19.50;48.90;;;;;;5073599;28;20014;-79
2022/04/17 14:24:26;;;;;;;;;;;19.50;49.30;;;;;;5093324;28;19916;-75
2022/04/17 14:26:54;;;;;;;;;;;20.50;49.10;;;;;;5076194;28;19920;-76
2022/04/17 14:29:20;;;;;;;;;;;19.60;47.60;;;;;;5090755;28;20031;-79
2022/04/17 14:31:45;;;;;;;;;;;19.60;49.30;;;;;;5094528;28;19927;-75
2022/04/17 14:34:11;;;;;;;;;;;19.60;48.40;;;;;;5101603;28;19923;-74